sensor_id;sensor_type;location;lat;lon;timestamp;temperature;humidity
20881;DHT22;10600;53.096;8.802;2022-10-15T00:00:17;13.10;99.90
20881;DHT22;10600;53.096;8.802;2022-10-15T00:01:18;13.10;99.90
20881;DHT22;10600;53.096;8.802;2022-10-15T00:02:19;13.10;99.90
20881;DHT22;10600;53.096;8.802;2022-10-15T00:03:19;13.10;99.90
20881;DHT22;10600;53.096;8.802;2022-10-15T00:04:20;13.10;99.90
20881;DHT22;10600;53.096;8.802;2022-10-15T00:05:21;13.10;99.90
20881;DHT22;10600;53.096;8.802;2022-10-15T00:06:22;13.00;99.90
20881;DHT22;10600;53.096;8.802;2022-10-15T00:07:23;13.00;99.90
20881;DHT22;10600;53.096;8.802;2022-10-15T00:08:23;13.00;99.90
20881;DHT22;10600;53.096;8.802;2022-10-15T00:09:24;13.00;99.90
20881;DHT22;10600;53.096;8.802;2022-10-15T00:10:25;12.90;99.90
20881;DHT22;10600;53.096;8.802;2022-10-15T00:11:27;12.90;99.90
20881;DHT22;10600;53.096;8.802;2022-10-15T00:12:28;12.90;99.90
20881;DHT22;10600;53.096;8.802;2022-10-15T00:13:28;12.90;99.90
20881;DHT22;10600;53.096;8.802;2022-10-15T00:14:29;12.90;99.90
20881;DHT22;10600;53.096;8.802;2022-10-15T00:15:29;12.90;99.90
20881;DHT22;10600;53.096;8.802;2022-10-15T00:16:31;12.90;99.90
20881;DHT22;10600;53.096;8.802;2022-10-15T00:17:33;12.80;99.90
20881;DHT22;10600;53.096;8.802;2022-10-15T00:18:34;12.80;99.90
20881;DHT22;10600;53.096;8.802;2022-10-15T00:19:34;12.80;99.90
20881;DHT22;10600;53.096;8.802;2022-10-15T00:20:35;12.80;99.90
20881;DHT22;10600;53.096;8.802;2022-10-15T00:21:36;12.80;99.90
20881;DHT22;10600;53.096;8.802;2022-10-15T00:22:39;12.80;99.90
20881;DHT22;10600;53.096;8.802;2022-10-15T00:23:40;12.70;99.90
20881;DHT22;10600;53.096;8.802;2022-10-15T00:24:41;12.70;99.90
20881;DHT22;10600;53.096;8.802;2022-10-15T00:25:41;12.70;99.90
20881;DHT22;10600;53.096;8.802;2022-10-15T00:26:42;12.70;99.90
20881;DHT22;10600;53.096;8.802;2022-10-15T00:27:43;12.70;99.90
20881;DHT22;10600;53.096;8.802;2022-10-15T00:28:44;12.70;99.90
20881;DHT22;10600;53.096;8.802;2022-10-15T00:29:45;12.60;99.90
20881;DHT22;10600;53.096;8.802;2022-10-15T00:30:45;12.60;99.90
20881;DHT22;10600;53.096;8.802;2022-10-15T00:31:46;12.60;99.90
20881;DHT22;10600;53.096;8.802;2022-10-15T00:32:47;12.60;99.90
20881;DHT22;10600;53.096;8.802;2022-10-15T00:33:49;12.60;99.90
20881;DHT22;10600;53.096;8.802;2022-10-15T00:34:50;12.60;99.90
20881;DHT22;10600;53.096;8.802;2022-10-15T00:36:02;12.60;99.90
20881;DHT22;10600;53.096;8.802;2022-10-15T00:37:03;12.60;99.90
20881;DHT22;10600;53.096;8.802;2022-10-15T00:38:04;12.60;99.90
20881;DHT22;10600;53.096;8.802;2022-10-15T00:39:05;12.50;99.90
20881;DHT22;10600;53.096;8.802;2022-10-15T00:40:06;12.60;99.90
20881;DHT22;10600;53.096;8.802;2022-10-15T00:41:14;12.50;99.90
20881;DHT22;10600;53.096;8.802;2022-10-15T00:42:16;12.50;99.90
20881;DHT22;10600;53.096;8.802;2022-10-15T00:43:16;12.50;99.90
20881;DHT22;10600;53.096;8.802;2022-10-15T00:45:21;12.50;99.90
20881;DHT22;10600;53.096;8.802;2022-10-15T00:46:40;12.50;99.90
20881;DHT22;10600;53.096;8.802;2022-10-15T00:47:45;12.50;99.90
20881;DHT22;10600;53.096;8.802;2022-10-15T00:48:50;12.50;99.90
20881;DHT22;10600;53.096;8.802;2022-10-15T00:49:54;12.50;99.90
20881;DHT22;10600;53.096;8.802;2022-10-15T00:51:01;12.40;99.90
20881;DHT22;10600;53.096;8.802;2022-10-15T00:52:10;12.40;99.90
20881;DHT22;10600;53.096;8.802;2022-10-15T00:53:12;12.40;99.90
20881;DHT22;10600;53.096;8.802;2022-10-15T00:54:14;12.40;99.90
20881;DHT22;10600;53.096;8.802;2022-10-15T00:55:26;12.40;99.90
20881;DHT22;10600;53.096;8.802;2022-10-15T00:56:30;12.30;99.90
20881;DHT22;10600;53.096;8.802;2022-10-15T00:57:32;12.30;99.90
20881;DHT22;10600;53.096;8.802;2022-10-15T00:58:33;12.30;99.90
20881;DHT22;10600;53.096;8.802;2022-10-15T00:59:42;12.30;99.90
20881;DHT22;10600;53.096;8.802;2022-10-15T01:00:43;12.30;99.90
20881;DHT22;10600;53.096;8.802;2022-10-15T01:01:44;12.30;99.90
20881;DHT22;10600;53.096;8.802;2022-10-15T01:02:45;12.30;99.90
20881;DHT22;10600;53.096;8.802;2022-10-15T01:03:46;12.30;99.90
20881;DHT22;10600;53.096;8.802;2022-10-15T01:04:47;12.30;99.90
20881;DHT22;10600;53.096;8.802;2022-10-15T01:05:51;12.30;99.90
20881;DHT22;10600;53.096;8.802;2022-10-15T01:06:53;12.20;99.90
20881;DHT22;10600;53.096;8.802;2022-10-15T01:07:53;12.20;99.90
20881;DHT22;10600;53.096;8.802;2022-10-15T01:08:54;12.20;99.90
20881;DHT22;10600;53.096;8.802;2022-10-15T01:09:55;12.20;99.90
20881;DHT22;10600;53.096;8.802;2022-10-15T01:11:24;12.20;99.90
20881;DHT22;10600;53.096;8.802;2022-10-15T01:13:59;12.20;99.90
20881;DHT22;10600;53.096;8.802;2022-10-15T01:16:47;12.20;99.90
20881;DHT22;10600;53.096;8.802;2022-10-15T01:22:14;12.10;99.90
20881;DHT22;10600;53.096;8.802;2022-10-15T01:27:26;12.10;99.90
20881;DHT22;10600;53.096;8.802;2022-10-15T01:31:43;12.20;99.90
20881;DHT22;10600;53.096;8.802;2022-10-15T01:34:00;12.20;99.90
20881;DHT22;10600;53.096;8.802;2022-10-15T01:36:51;12.20;99.90
20881;DHT22;10600;53.096;8.802;2022-10-15T01:37:56;12.30;99.90
20881;DHT22;10600;53.096;8.802;2022-10-15T01:39:13;12.30;99.90
20881;DHT22;10600;53.096;8.802;2022-10-15T01:41:35;12.30;99.90
20881;DHT22;10600;53.096;8.802;2022-10-15T01:42:52;12.30;99.90
20881;DHT22;10600;53.096;8.802;2022-10-15T01:44:11;12.30;99.90
20881;DHT22;10600;53.096;8.802;2022-10-15T01:45:19;12.30;99.90
20881;DHT22;10600;53.096;8.802;2022-10-15T01:46:51;12.30;99.90
20881;DHT22;10600;53.096;8.802;2022-10-15T01:47:57;12.30;99.90
20881;DHT22;10600;53.096;8.802;2022-10-15T01:48:58;12.30;99.90
20881;DHT22;10600;53.096;8.802;2022-10-15T01:50:02;12.40;99.90
20881;DHT22;10600;53.096;8.802;2022-10-15T01:51:05;12.40;99.90
20881;DHT22;10600;53.096;8.802;2022-10-15T01:52:09;12.40;99.90
20881;DHT22;10600;53.096;8.802;2022-10-15T01:53:15;12.40;99.90
20881;DHT22;10600;53.096;8.802;2022-10-15T01:54:18;12.40;99.90
20881;DHT22;10600;53.096;8.802;2022-10-15T01:55:20;12.40;99.90
20881;DHT22;10600;53.096;8.802;2022-10-15T01:56:24;12.40;99.90
20881;DHT22;10600;53.096;8.802;2022-10-15T01:57:27;12.50;99.90
20881;DHT22;10600;53.096;8.802;2022-10-15T01:58:30;12.40;99.90
20881;DHT22;10600;53.096;8.802;2022-10-15T01:59:32;12.50;99.90
20881;DHT22;10600;53.096;8.802;2022-10-15T02:00:33;12.50;99.90
20881;DHT22;10600;53.096;8.802;2022-10-15T02:01:34;12.50;99.90
20881;DHT22;10600;53.096;8.802;2022-10-15T02:02:34;12.50;99.90
20881;DHT22;10600;53.096;8.802;2022-10-15T02:03:46;12.50;99.90
20881;DHT22;10600;53.096;8.802;2022-10-15T02:04:47;12.50;99.90
20881;DHT22;10600;53.096;8.802;2022-10-15T02:05:54;12.50;99.90
20881;DHT22;10600;53.096;8.802;2022-10-15T02:09:28;12.50;99.90
20881;DHT22;10600;53.096;8.802;2022-10-15T02:10:55;12.60;99.90
20881;DHT22;10600;53.096;8.802;2022-10-15T02:12:02;12.60;99.90
20881;DHT22;10600;53.096;8.802;2022-10-15T02:17:18;12.50;99.90
20881;DHT22;10600;53.096;8.802;2022-10-15T02:19:50;12.60;99.90
20881;DHT22;10600;53.096;8.802;2022-10-15T02:20:58;12.60;99.90
20881;DHT22;10600;53.096;8.802;2022-10-15T02:22:07;12.60;99.90
20881;DHT22;10600;53.096;8.802;2022-10-15T02:23:21;12.60;99.90
20881;DHT22;10600;53.096;8.802;2022-10-15T02:24:25;12.60;99.90
20881;DHT22;10600;53.096;8.802;2022-10-15T02:25:28;12.60;99.90
20881;DHT22;10600;53.096;8.802;2022-10-15T02:26:29;12.60;99.90
20881;DHT22;10600;53.096;8.802;2022-10-15T02:27:32;12.60;99.90
20881;DHT22;10600;53.096;8.802;2022-10-15T02:28:35;12.60;99.90
20881;DHT22;10600;53.096;8.802;2022-10-15T02:29:37;12.60;99.90
20881;DHT22;10600;53.096;8.802;2022-10-15T02:30:42;12.60;99.90
20881;DHT22;10600;53.096;8.802;2022-10-15T02:31:46;12.60;99.90
20881;DHT22;10600;53.096;8.802;2022-10-15T02:32:53;12.60;99.90
20881;DHT22;10600;53.096;8.802;2022-10-15T02:34:00;12.60;99.90
20881;DHT22;10600;53.096;8.802;2022-10-15T02:35:03;12.60;99.90
20881;DHT22;10600;53.096;8.802;2022-10-15T02:36:06;12.60;99.90
20881;DHT22;10600;53.096;8.802;2022-10-15T02:37:07;12.60;99.90
20881;DHT22;10600;53.096;8.802;2022-10-15T02:38:11;12.60;99.90
20881;DHT22;10600;53.096;8.802;2022-10-15T02:39:19;12.60;99.90
20881;DHT22;10600;53.096;8.802;2022-10-15T02:40:23;12.60;99.90
20881;DHT22;10600;53.096;8.802;2022-10-15T02:41:28;12.60;99.90
20881;DHT22;10600;53.096;8.802;2022-10-15T02:42:29;12.60;99.90
20881;DHT22;10600;53.096;8.802;2022-10-15T02:43:29;12.50;99.90
20881;DHT22;10600;53.096;8.802;2022-10-15T02:44:30;12.50;99.90
20881;DHT22;10600;53.096;8.802;2022-10-15T02:45:31;12.50;99.90
20881;DHT22;10600;53.096;8.802;2022-10-15T02:46:32;12.50;99.90
20881;DHT22;10600;53.096;8.802;2022-10-15T02:47:32;12.50;99.90
20881;DHT22;10600;53.096;8.802;2022-10-15T02:48:33;12.50;99.90
20881;DHT22;10600;53.096;8.802;2022-10-15T02:49:34;12.50;99.90
20881;DHT22;10600;53.096;8.802;2022-10-15T02:50:34;12.50;99.90
20881;DHT22;10600;53.096;8.802;2022-10-15T02:51:35;12.60;99.90
20881;DHT22;10600;53.096;8.802;2022-10-15T02:52:36;12.50;99.90
20881;DHT22;10600;53.096;8.802;2022-10-15T02:53:37;12.60;99.90
20881;DHT22;10600;53.096;8.802;2022-10-15T02:54:37;12.60;99.90
20881;DHT22;10600;53.096;8.802;2022-10-15T02:55:38;12.60;99.90
20881;DHT22;10600;53.096;8.802;2022-10-15T02:56:38;12.60;99.90
20881;DHT22;10600;53.096;8.802;2022-10-15T02:57:39;12.60;99.90
20881;DHT22;10600;53.096;8.802;2022-10-15T02:58:40;12.60;99.90
20881;DHT22;10600;53.096;8.802;2022-10-15T02:59:41;12.60;99.90
20881;DHT22;10600;53.096;8.802;2022-10-15T03:00:41;12.60;99.90
20881;DHT22;10600;53.096;8.802;2022-10-15T03:01:42;12.60;99.90
20881;DHT22;10600;53.096;8.802;2022-10-15T03:02:43;12.60;99.90
20881;DHT22;10600;53.096;8.802;2022-10-15T03:03:44;12.60;99.90
20881;DHT22;10600;53.096;8.802;2022-10-15T03:04:45;12.60;99.90
20881;DHT22;10600;53.096;8.802;2022-10-15T03:05:45;12.60;99.90
20881;DHT22;10600;53.096;8.802;2022-10-15T03:06:46;12.60;99.90
20881;DHT22;10600;53.096;8.802;2022-10-15T03:07:47;12.60;99.90
20881;DHT22;10600;53.096;8.802;2022-10-15T03:08:48;12.60;99.90
20881;DHT22;10600;53.096;8.802;2022-10-15T03:09:48;12.60;99.90
20881;DHT22;10600;53.096;8.802;2022-10-15T03:10:49;12.60;99.90
20881;DHT22;10600;53.096;8.802;2022-10-15T03:11:50;12.60;99.90
20881;DHT22;10600;53.096;8.802;2022-10-15T03:12:51;12.60;99.90
20881;DHT22;10600;53.096;8.802;2022-10-15T03:13:51;12.60;99.90
20881;DHT22;10600;53.096;8.802;2022-10-15T03:14:52;12.70;99.90
20881;DHT22;10600;53.096;8.802;2022-10-15T03:15:53;12.60;99.90
20881;DHT22;10600;53.096;8.802;2022-10-15T03:16:53;12.60;99.90
20881;DHT22;10600;53.096;8.802;2022-10-15T03:17:54;12.60;99.90
20881;DHT22;10600;53.096;8.802;2022-10-15T03:18:55;12.60;99.90
20881;DHT22;10600;53.096;8.802;2022-10-15T03:19:55;12.60;99.90
20881;DHT22;10600;53.096;8.802;2022-10-15T03:20:57;12.60;99.90
20881;DHT22;10600;53.096;8.802;2022-10-15T03:21:57;12.60;99.90
20881;DHT22;10600;53.096;8.802;2022-10-15T03:22:58;12.60;99.90
20881;DHT22;10600;53.096;8.802;2022-10-15T03:23:59;12.60;99.90
20881;DHT22;10600;53.096;8.802;2022-10-15T03:24:59;12.60;99.90
20881;DHT22;10600;53.096;8.802;2022-10-15T03:26:00;12.60;99.90
20881;DHT22;10600;53.096;8.802;2022-10-15T03:27:01;12.60;99.90
20881;DHT22;10600;53.096;8.802;2022-10-15T03:28:01;12.60;99.90
20881;DHT22;10600;53.096;8.802;2022-10-15T03:29:02;12.60;99.90
20881;DHT22;10600;53.096;8.802;2022-10-15T03:30:03;12.60;99.90
20881;DHT22;10600;53.096;8.802;2022-10-15T03:31:05;12.60;99.90
20881;DHT22;10600;53.096;8.802;2022-10-15T03:32:06;12.60;99.90
20881;DHT22;10600;53.096;8.802;2022-10-15T03:33:06;12.60;99.90
20881;DHT22;10600;53.096;8.802;2022-10-15T03:34:07;12.60;99.90
20881;DHT22;10600;53.096;8.802;2022-10-15T03:35:08;12.50;99.90
20881;DHT22;10600;53.096;8.802;2022-10-15T03:36:09;12.50;99.90
20881;DHT22;10600;53.096;8.802;2022-10-15T03:37:10;12.50;99.90
20881;DHT22;10600;53.096;8.802;2022-10-15T03:38:11;12.50;99.90
20881;DHT22;10600;53.096;8.802;2022-10-15T03:39:12;12.60;99.90
20881;DHT22;10600;53.096;8.802;2022-10-15T03:40:12;12.60;99.90
20881;DHT22;10600;53.096;8.802;2022-10-15T03:41:13;12.50;99.90
20881;DHT22;10600;53.096;8.802;2022-10-15T03:42:14;12.50;99.90
20881;DHT22;10600;53.096;8.802;2022-10-15T03:43:15;12.60;99.90
20881;DHT22;10600;53.096;8.802;2022-10-15T03:44:15;12.50;99.90
20881;DHT22;10600;53.096;8.802;2022-10-15T03:45:18;12.50;99.90
20881;DHT22;10600;53.096;8.802;2022-10-15T03:46:18;12.50;99.90
20881;DHT22;10600;53.096;8.802;2022-10-15T03:47:19;12.50;99.90
20881;DHT22;10600;53.096;8.802;2022-10-15T03:48:20;12.60;99.90
20881;DHT22;10600;53.096;8.802;2022-10-15T03:49:20;12.50;99.90
20881;DHT22;10600;53.096;8.802;2022-10-15T03:50:21;12.50;99.90
20881;DHT22;10600;53.096;8.802;2022-10-15T03:51:22;12.50;99.90
20881;DHT22;10600;53.096;8.802;2022-10-15T03:52:22;12.50;99.90
20881;DHT22;10600;53.096;8.802;2022-10-15T03:53:23;12.50;99.90
20881;DHT22;10600;53.096;8.802;2022-10-15T03:54:24;12.50;99.90
20881;DHT22;10600;53.096;8.802;2022-10-15T03:55:24;12.40;99.90
20881;DHT22;10600;53.096;8.802;2022-10-15T03:56:25;12.40;99.90
20881;DHT22;10600;53.096;8.802;2022-10-15T03:57:26;12.40;99.90
20881;DHT22;10600;53.096;8.802;2022-10-15T03:58:26;12.40;99.90
20881;DHT22;10600;53.096;8.802;2022-10-15T03:59:27;12.30;99.90
20881;DHT22;10600;53.096;8.802;2022-10-15T04:00:28;12.30;99.90
20881;DHT22;10600;53.096;8.802;2022-10-15T04:01:29;12.30;99.90
20881;DHT22;10600;53.096;8.802;2022-10-15T04:02:30;12.30;99.90
20881;DHT22;10600;53.096;8.802;2022-10-15T04:03:31;12.30;99.90
20881;DHT22;10600;53.096;8.802;2022-10-15T04:04:31;12.30;99.90
20881;DHT22;10600;53.096;8.802;2022-10-15T04:05:32;12.30;99.90
20881;DHT22;10600;53.096;8.802;2022-10-15T04:06:33;12.20;99.90
20881;DHT22;10600;53.096;8.802;2022-10-15T04:07:34;12.20;99.90
20881;DHT22;10600;53.096;8.802;2022-10-15T04:08:35;12.20;99.90
20881;DHT22;10600;53.096;8.802;2022-10-15T04:09:35;12.20;99.90
20881;DHT22;10600;53.096;8.802;2022-10-15T04:10:36;12.20;99.90
20881;DHT22;10600;53.096;8.802;2022-10-15T04:11:37;12.10;99.90
20881;DHT22;10600;53.096;8.802;2022-10-15T04:12:37;12.10;99.90
20881;DHT22;10600;53.096;8.802;2022-10-15T04:13:38;12.10;99.90
20881;DHT22;10600;53.096;8.802;2022-10-15T04:14:39;12.10;99.90
20881;DHT22;10600;53.096;8.802;2022-10-15T04:15:40;12.10;99.90
20881;DHT22;10600;53.096;8.802;2022-10-15T04:16:40;12.10;99.90
20881;DHT22;10600;53.096;8.802;2022-10-15T04:17:41;12.10;99.90
20881;DHT22;10600;53.096;8.802;2022-10-15T04:18:42;12.00;99.90
20881;DHT22;10600;53.096;8.802;2022-10-15T04:19:42;12.00;99.90
20881;DHT22;10600;53.096;8.802;2022-10-15T04:20:43;12.00;99.90
20881;DHT22;10600;53.096;8.802;2022-10-15T04:21:44;12.10;99.90
20881;DHT22;10600;53.096;8.802;2022-10-15T04:22:44;12.00;99.90
20881;DHT22;10600;53.096;8.802;2022-10-15T04:23:45;12.10;99.90
20881;DHT22;10600;53.096;8.802;2022-10-15T04:24:46;12.10;99.90
20881;DHT22;10600;53.096;8.802;2022-10-15T04:25:47;12.10;99.90
20881;DHT22;10600;53.096;8.802;2022-10-15T04:26:48;12.10;99.90
20881;DHT22;10600;53.096;8.802;2022-10-15T04:27:48;12.10;99.90
20881;DHT22;10600;53.096;8.802;2022-10-15T04:28:49;12.10;99.90
20881;DHT22;10600;53.096;8.802;2022-10-15T04:29:49;12.10;99.90
20881;DHT22;10600;53.096;8.802;2022-10-15T04:30:50;12.10;99.90
20881;DHT22;10600;53.096;8.802;2022-10-15T04:31:51;12.10;99.90
20881;DHT22;10600;53.096;8.802;2022-10-15T04:32:52;12.20;99.90
20881;DHT22;10600;53.096;8.802;2022-10-15T04:33:52;12.10;99.90
20881;DHT22;10600;53.096;8.802;2022-10-15T04:34:53;12.10;99.90
20881;DHT22;10600;53.096;8.802;2022-10-15T04:36:02;12.10;99.90
20881;DHT22;10600;53.096;8.802;2022-10-15T04:37:03;12.10;99.90
20881;DHT22;10600;53.096;8.802;2022-10-15T04:38:04;12.10;99.90
20881;DHT22;10600;53.096;8.802;2022-10-15T04:39:05;12.10;99.90
20881;DHT22;10600;53.096;8.802;2022-10-15T04:40:06;12.10;99.90
20881;DHT22;10600;53.096;8.802;2022-10-15T04:41:09;12.10;99.90
20881;DHT22;10600;53.096;8.802;2022-10-15T04:42:10;12.10;99.90
20881;DHT22;10600;53.096;8.802;2022-10-15T04:43:10;12.10;99.90
20881;DHT22;10600;53.096;8.802;2022-10-15T04:44:11;12.10;99.90
20881;DHT22;10600;53.096;8.802;2022-10-15T04:45:11;12.10;99.90
20881;DHT22;10600;53.096;8.802;2022-10-15T04:46:12;12.10;99.90
20881;DHT22;10600;53.096;8.802;2022-10-15T04:47:13;12.10;99.90
20881;DHT22;10600;53.096;8.802;2022-10-15T04:48:14;12.10;99.90
20881;DHT22;10600;53.096;8.802;2022-10-15T04:49:14;12.10;99.90
20881;DHT22;10600;53.096;8.802;2022-10-15T04:50:15;12.10;99.90
20881;DHT22;10600;53.096;8.802;2022-10-15T04:51:20;12.10;99.90
20881;DHT22;10600;53.096;8.802;2022-10-15T04:52:20;12.10;99.90
20881;DHT22;10600;53.096;8.802;2022-10-15T04:53:21;12.10;99.90
20881;DHT22;10600;53.096;8.802;2022-10-15T04:54:22;12.10;99.90
20881;DHT22;10600;53.096;8.802;2022-10-15T04:55:22;12.10;99.90
20881;DHT22;10600;53.096;8.802;2022-10-15T04:56:23;12.10;99.90
20881;DHT22;10600;53.096;8.802;2022-10-15T04:57:24;12.20;99.90
20881;DHT22;10600;53.096;8.802;2022-10-15T04:58:27;12.20;99.90
20881;DHT22;10600;53.096;8.802;2022-10-15T04:59:28;12.20;99.90
20881;DHT22;10600;53.096;8.802;2022-10-15T05:00:28;12.10;99.90
20881;DHT22;10600;53.096;8.802;2022-10-15T05:01:29;12.10;99.90
20881;DHT22;10600;53.096;8.802;2022-10-15T05:02:30;12.20;99.90
20881;DHT22;10600;53.096;8.802;2022-10-15T05:03:33;12.20;99.90
20881;DHT22;10600;53.096;8.802;2022-10-15T05:04:34;12.20;99.90
20881;DHT22;10600;53.096;8.802;2022-10-15T05:05:35;12.20;99.90
20881;DHT22;10600;53.096;8.802;2022-10-15T05:06:35;12.20;99.90
20881;DHT22;10600;53.096;8.802;2022-10-15T05:07:36;12.10;99.90
20881;DHT22;10600;53.096;8.802;2022-10-15T05:08:37;12.20;99.90
20881;DHT22;10600;53.096;8.802;2022-10-15T05:09:41;12.10;99.90
20881;DHT22;10600;53.096;8.802;2022-10-15T05:10:41;12.10;99.90
20881;DHT22;10600;53.096;8.802;2022-10-15T05:11:42;12.10;99.90
20881;DHT22;10600;53.096;8.802;2022-10-15T05:12:43;12.10;99.90
20881;DHT22;10600;53.096;8.802;2022-10-15T05:13:44;12.10;99.90
20881;DHT22;10600;53.096;8.802;2022-10-15T05:14:44;12.10;99.90
20881;DHT22;10600;53.096;8.802;2022-10-15T05:15:45;12.10;99.90
20881;DHT22;10600;53.096;8.802;2022-10-15T05:16:46;12.10;99.90
20881;DHT22;10600;53.096;8.802;2022-10-15T05:17:46;12.00;99.90
20881;DHT22;10600;53.096;8.802;2022-10-15T05:18:49;12.00;99.90
20881;DHT22;10600;53.096;8.802;2022-10-15T05:19:50;12.00;99.90
20881;DHT22;10600;53.096;8.802;2022-10-15T05:20:50;12.00;99.90
20881;DHT22;10600;53.096;8.802;2022-10-15T05:21:51;12.00;99.90
20881;DHT22;10600;53.096;8.802;2022-10-15T05:22:52;12.00;99.90
20881;DHT22;10600;53.096;8.802;2022-10-15T05:23:52;12.00;99.90
20881;DHT22;10600;53.096;8.802;2022-10-15T05:24:53;12.00;99.90
20881;DHT22;10600;53.096;8.802;2022-10-15T05:25:54;12.00;99.90
20881;DHT22;10600;53.096;8.802;2022-10-15T05:26:54;12.00;99.90
20881;DHT22;10600;53.096;8.802;2022-10-15T05:27:55;12.00;99.90
20881;DHT22;10600;53.096;8.802;2022-10-15T05:28:57;12.00;99.90
20881;DHT22;10600;53.096;8.802;2022-10-15T05:29:58;12.00;99.90
20881;DHT22;10600;53.096;8.802;2022-10-15T05:31:06;12.00;99.90
20881;DHT22;10600;53.096;8.802;2022-10-15T05:32:07;12.00;99.90
20881;DHT22;10600;53.096;8.802;2022-10-15T05:33:08;12.00;99.90
20881;DHT22;10600;53.096;8.802;2022-10-15T05:34:08;12.00;99.90
20881;DHT22;10600;53.096;8.802;2022-10-15T05:35:09;12.00;99.90
20881;DHT22;10600;53.096;8.802;2022-10-15T05:36:16;12.00;99.90
20881;DHT22;10600;53.096;8.802;2022-10-15T05:37:17;12.00;99.90
20881;DHT22;10600;53.096;8.802;2022-10-15T05:38:17;12.00;99.90
20881;DHT22;10600;53.096;8.802;2022-10-15T05:39:18;12.00;99.90
20881;DHT22;10600;53.096;8.802;2022-10-15T05:40:19;12.10;99.90
20881;DHT22;10600;53.096;8.802;2022-10-15T05:41:20;12.10;99.90
20881;DHT22;10600;53.096;8.802;2022-10-15T05:42:20;12.10;99.90
20881;DHT22;10600;53.096;8.802;2022-10-15T05:43:22;12.10;99.90
20881;DHT22;10600;53.096;8.802;2022-10-15T05:44:22;12.10;99.90
20881;DHT22;10600;53.096;8.802;2022-10-15T05:45:23;12.10;99.90
20881;DHT22;10600;53.096;8.802;2022-10-15T05:46:24;12.10;99.90
20881;DHT22;10600;53.096;8.802;2022-10-15T05:47:24;12.10;99.90
20881;DHT22;10600;53.096;8.802;2022-10-15T05:48:25;12.10;99.90
20881;DHT22;10600;53.096;8.802;2022-10-15T05:49:26;12.10;99.90
20881;DHT22;10600;53.096;8.802;2022-10-15T05:50:26;12.10;99.90
20881;DHT22;10600;53.096;8.802;2022-10-15T05:51:27;12.20;99.90
20881;DHT22;10600;53.096;8.802;2022-10-15T05:52:28;12.10;99.90
20881;DHT22;10600;53.096;8.802;2022-10-15T05:53:29;12.10;99.90
20881;DHT22;10600;53.096;8.802;2022-10-15T05:54:29;12.10;99.90
20881;DHT22;10600;53.096;8.802;2022-10-15T05:55:30;12.10;99.90
20881;DHT22;10600;53.096;8.802;2022-10-15T05:56:31;12.20;99.90
20881;DHT22;10600;53.096;8.802;2022-10-15T05:57:31;12.10;99.90
20881;DHT22;10600;53.096;8.802;2022-10-15T05:58:33;12.10;99.90
20881;DHT22;10600;53.096;8.802;2022-10-15T05:59:34;12.10;99.90
20881;DHT22;10600;53.096;8.802;2022-10-15T06:00:35;12.10;99.90
20881;DHT22;10600;53.096;8.802;2022-10-15T06:01:35;12.20;99.90
20881;DHT22;10600;53.096;8.802;2022-10-15T06:02:37;12.10;99.90
20881;DHT22;10600;53.096;8.802;2022-10-15T06:03:39;12.20;99.90
20881;DHT22;10600;53.096;8.802;2022-10-15T06:04:39;12.20;99.90
20881;DHT22;10600;53.096;8.802;2022-10-15T06:05:40;12.20;99.90
20881;DHT22;10600;53.096;8.802;2022-10-15T06:06:41;12.20;99.90
20881;DHT22;10600;53.096;8.802;2022-10-15T06:07:42;12.20;99.90
20881;DHT22;10600;53.096;8.802;2022-10-15T06:08:42;12.20;99.90
20881;DHT22;10600;53.096;8.802;2022-10-15T06:09:43;12.20;99.90
20881;DHT22;10600;53.096;8.802;2022-10-15T06:10:44;12.20;99.90
20881;DHT22;10600;53.096;8.802;2022-10-15T06:11:45;12.20;99.90
20881;DHT22;10600;53.096;8.802;2022-10-15T06:12:49;12.20;99.90
20881;DHT22;10600;53.096;8.802;2022-10-15T06:13:50;12.20;99.90
20881;DHT22;10600;53.096;8.802;2022-10-15T06:14:51;12.20;99.90
20881;DHT22;10600;53.096;8.802;2022-10-15T06:15:52;12.20;99.90
20881;DHT22;10600;53.096;8.802;2022-10-15T06:16:52;12.20;99.90
20881;DHT22;10600;53.096;8.802;2022-10-15T06:17:54;12.20;99.90
20881;DHT22;10600;53.096;8.802;2022-10-15T06:18:55;12.10;99.90
20881;DHT22;10600;53.096;8.802;2022-10-15T06:19:55;12.20;99.90
20881;DHT22;10600;53.096;8.802;2022-10-15T06:20:56;12.20;99.90
20881;DHT22;10600;53.096;8.802;2022-10-15T06:21:57;12.20;99.90
20881;DHT22;10600;53.096;8.802;2022-10-15T06:23:01;12.20;99.90
20881;DHT22;10600;53.096;8.802;2022-10-15T06:24:02;12.10;99.90
20881;DHT22;10600;53.096;8.802;2022-10-15T06:25:03;12.10;99.90
20881;DHT22;10600;53.096;8.802;2022-10-15T06:26:08;12.10;99.90
20881;DHT22;10600;53.096;8.802;2022-10-15T06:27:09;12.20;99.90
20881;DHT22;10600;53.096;8.802;2022-10-15T06:28:11;12.20;99.90
20881;DHT22;10600;53.096;8.802;2022-10-15T06:29:11;12.20;99.90
20881;DHT22;10600;53.096;8.802;2022-10-15T06:30:12;12.20;99.90
20881;DHT22;10600;53.096;8.802;2022-10-15T06:31:13;12.20;99.90
20881;DHT22;10600;53.096;8.802;2022-10-15T06:32:13;12.20;99.90
20881;DHT22;10600;53.096;8.802;2022-10-15T06:33:14;12.20;99.90
20881;DHT22;10600;53.096;8.802;2022-10-15T06:34:16;12.20;99.90
20881;DHT22;10600;53.096;8.802;2022-10-15T06:35:17;12.20;99.90
20881;DHT22;10600;53.096;8.802;2022-10-15T06:36:18;12.30;99.90
20881;DHT22;10600;53.096;8.802;2022-10-15T06:37:21;12.30;99.90
20881;DHT22;10600;53.096;8.802;2022-10-15T06:38:22;12.30;99.90
20881;DHT22;10600;53.096;8.802;2022-10-15T06:39:24;12.30;99.90
20881;DHT22;10600;53.096;8.802;2022-10-15T06:40:24;12.30;99.90
20881;DHT22;10600;53.096;8.802;2022-10-15T06:41:25;12.30;99.90
20881;DHT22;10600;53.096;8.802;2022-10-15T06:42:26;12.40;99.90
20881;DHT22;10600;53.096;8.802;2022-10-15T06:43:26;12.40;99.90
20881;DHT22;10600;53.096;8.802;2022-10-15T06:44:27;12.40;99.90
20881;DHT22;10600;53.096;8.802;2022-10-15T06:45:28;12.40;99.90
20881;DHT22;10600;53.096;8.802;2022-10-15T06:46:28;12.40;99.90
20881;DHT22;10600;53.096;8.802;2022-10-15T06:47:29;12.40;99.90
20881;DHT22;10600;53.096;8.802;2022-10-15T06:48:30;12.50;99.90
20881;DHT22;10600;53.096;8.802;2022-10-15T06:49:32;12.50;99.90
20881;DHT22;10600;53.096;8.802;2022-10-15T06:50:34;12.50;99.90
20881;DHT22;10600;53.096;8.802;2022-10-15T06:51:34;12.50;99.90
20881;DHT22;10600;53.096;8.802;2022-10-15T06:52:37;12.60;99.90
20881;DHT22;10600;53.096;8.802;2022-10-15T06:53:38;12.60;99.90
20881;DHT22;10600;53.096;8.802;2022-10-15T06:54:41;12.60;99.90
20881;DHT22;10600;53.096;8.802;2022-10-15T06:55:42;12.60;99.90
20881;DHT22;10600;53.096;8.802;2022-10-15T06:56:42;12.70;99.90
20881;DHT22;10600;53.096;8.802;2022-10-15T06:57:43;12.70;99.90
20881;DHT22;10600;53.096;8.802;2022-10-15T06:58:44;12.70;99.90
20881;DHT22;10600;53.096;8.802;2022-10-15T06:59:44;12.70;99.90